sensor_id;sensor_type;location;lat;lon;timestamp;P1;durP1;ratioP1;P2;durP2;ratioP2
66270;SDS011;53063;39.614;8.814;2023-08-01T00:01:32;6.45;;;1.70;;
66270;SDS011;53063;39.614;8.814;2023-08-01T00:03:58;9.38;;;2.08;;
66270;SDS011;53063;39.614;8.814;2023-08-01T00:06:24;9.93;;;2.47;;
66270;SDS011;53063;39.614;8.814;2023-08-01T00:08:50;10.38;;;1.83;;
66270;SDS011;53063;39.614;8.814;2023-08-01T00:11:16;8.90;;;2.38;;
66270;SDS011;53063;39.614;8.814;2023-08-01T00:13:42;6.18;;;1.90;;
66270;SDS011;53063;39.614;8.814;2023-08-01T00:16:09;8.77;;;2.13;;
66270;SDS011;53063;39.614;8.814;2023-08-01T00:18:35;10.15;;;2.35;;
66270;SDS011;53063;39.614;8.814;2023-08-01T00:21:01;6.57;;;1.88;;
66270;SDS011;53063;39.614;8.814;2023-08-01T00:23:27;11.60;;;2.08;;
66270;SDS011;53063;39.614;8.814;2023-08-01T00:25:53;7.68;;;2.40;;
66270;SDS011;53063;39.614;8.814;2023-08-01T00:28:21;8.43;;;2.35;;
66270;SDS011;53063;39.614;8.814;2023-08-01T00:30:47;10.52;;;2.42;;
66270;SDS011;53063;39.614;8.814;2023-08-01T00:33:13;10.60;;;1.92;;
66270;SDS011;53063;39.614;8.814;2023-08-01T00:35:40;6.88;;;2.00;;
66270;SDS011;53063;39.614;8.814;2023-08-01T00:38:06;8.05;;;2.10;;
66270;SDS011;53063;39.614;8.814;2023-08-01T00:40:32;15.05;;;2.75;;
66270;SDS011;53063;39.614;8.814;2023-08-01T00:42:59;6.43;;;2.05;;
66270;SDS011;53063;39.614;8.814;2023-08-01T00:45:26;8.85;;;2.13;;
66270;SDS011;53063;39.614;8.814;2023-08-01T00:47:53;9.27;;;2.05;;
66270;SDS011;53063;39.614;8.814;2023-08-01T00:50:19;7.97;;;2.30;;
66270;SDS011;53063;39.614;8.814;2023-08-01T00:52:47;10.45;;;2.50;;
66270;SDS011;53063;39.614;8.814;2023-08-01T00:55:14;11.07;;;2.38;;
66270;SDS011;53063;39.614;8.814;2023-08-01T00:57:41;6.45;;;2.22;;
66270;SDS011;53063;39.614;8.814;2023-08-01T01:00:08;8.60;;;2.50;;
66270;SDS011;53063;39.614;8.814;2023-08-01T01:02:34;7.47;;;2.17;;
66270;SDS011;53063;39.614;8.814;2023-08-01T01:05:01;7.97;;;2.05;;
66270;SDS011;53063;39.614;8.814;2023-08-01T01:07:28;7.97;;;2.17;;
66270;SDS011;53063;39.614;8.814;2023-08-01T01:09:55;6.13;;;2.25;;
66270;SDS011;53063;39.614;8.814;2023-08-01T01:12:21;6.60;;;1.63;;
66270;SDS011;53063;39.614;8.814;2023-08-01T01:14:47;8.45;;;2.13;;
66270;SDS011;53063;39.614;8.814;2023-08-01T01:17:13;9.60;;;2.58;;
66270;SDS011;53063;39.614;8.814;2023-08-01T01:19:39;7.10;;;2.70;;
66270;SDS011;53063;39.614;8.814;2023-08-01T01:22:06;11.93;;;2.08;;
66270;SDS011;53063;39.614;8.814;2023-08-01T01:24:34;7.07;;;2.42;;
66270;SDS011;53063;39.614;8.814;2023-08-01T01:27:01;9.00;;;2.00;;
66270;SDS011;53063;39.614;8.814;2023-08-01T01:29:29;7.15;;;1.67;;
66270;SDS011;53063;39.614;8.814;2023-08-01T01:31:58;11.68;;;2.53;;
66270;SDS011;53063;39.614;8.814;2023-08-01T01:34:26;7.45;;;2.00;;
66270;SDS011;53063;39.614;8.814;2023-08-01T01:36:55;12.13;;;3.72;;
66270;SDS011;53063;39.614;8.814;2023-08-01T01:39:21;12.13;;;2.92;;
66270;SDS011;53063;39.614;8.814;2023-08-01T01:41:47;9.20;;;2.10;;
66270;SDS011;53063;39.614;8.814;2023-08-01T01:44:13;8.05;;;2.03;;
66270;SDS011;53063;39.614;8.814;2023-08-01T01:46:39;8.32;;;1.92;;
66270;SDS011;53063;39.614;8.814;2023-08-01T01:49:04;7.30;;;2.25;;
66270;SDS011;53063;39.614;8.814;2023-08-01T01:51:30;10.52;;;2.65;;
66270;SDS011;53063;39.614;8.814;2023-08-01T01:53:57;6.60;;;2.22;;
66270;SDS011;53063;39.614;8.814;2023-08-01T01:56:22;7.55;;;2.28;;
66270;SDS011;53063;39.614;8.814;2023-08-01T01:58:49;7.45;;;2.20;;
66270;SDS011;53063;39.614;8.814;2023-08-01T02:01:14;9.95;;;2.67;;
66270;SDS011;53063;39.614;8.814;2023-08-01T02:03:40;8.93;;;2.90;;
66270;SDS011;53063;39.614;8.814;2023-08-01T02:06:06;12.05;;;2.47;;
66270;SDS011;53063;39.614;8.814;2023-08-01T02:08:32;9.60;;;2.45;;
66270;SDS011;53063;39.614;8.814;2023-08-01T02:10:58;7.35;;;2.10;;
66270;SDS011;53063;39.614;8.814;2023-08-01T02:13:25;10.98;;;2.65;;
66270;SDS011;53063;39.614;8.814;2023-08-01T02:15:53;7.53;;;2.50;;
66270;SDS011;53063;39.614;8.814;2023-08-01T02:18:19;6.82;;;2.00;;
66270;SDS011;53063;39.614;8.814;2023-08-01T02:20:45;6.68;;;2.00;;
66270;SDS011;53063;39.614;8.814;2023-08-01T02:23:11;4.95;;;1.90;;
66270;SDS011;53063;39.614;8.814;2023-08-01T02:25:40;7.38;;;1.95;;
66270;SDS011;53063;39.614;8.814;2023-08-01T02:28:07;7.93;;;2.45;;
66270;SDS011;53063;39.614;8.814;2023-08-01T02:30:34;10.65;;;2.47;;
66270;SDS011;53063;39.614;8.814;2023-08-01T02:33:01;8.82;;;3.25;;
66270;SDS011;53063;39.614;8.814;2023-08-01T02:35:28;10.30;;;2.40;;
66270;SDS011;53063;39.614;8.814;2023-08-01T02:37:54;7.25;;;2.40;;
66270;SDS011;53063;39.614;8.814;2023-08-01T02:40:21;10.68;;;2.33;;
66270;SDS011;53063;39.614;8.814;2023-08-01T02:42:47;9.32;;;2.95;;
66270;SDS011;53063;39.614;8.814;2023-08-01T02:45:14;5.22;;;2.65;;
66270;SDS011;53063;39.614;8.814;2023-08-01T02:47:40;7.45;;;2.20;;
66270;SDS011;53063;39.614;8.814;2023-08-01T02:50:06;7.50;;;2.17;;
66270;SDS011;53063;39.614;8.814;2023-08-01T02:52:32;9.10;;;2.15;;
66270;SDS011;53063;39.614;8.814;2023-08-01T02:54:58;7.82;;;2.33;;
66270;SDS011;53063;39.614;8.814;2023-08-01T02:57:24;4.10;;;1.90;;
66270;SDS011;53063;39.614;8.814;2023-08-01T02:59:50;5.78;;;1.95;;
66270;SDS011;53063;39.614;8.814;2023-08-01T03:02:16;8.32;;;2.50;;
66270;SDS011;53063;39.614;8.814;2023-08-01T03:04:42;6.95;;;2.20;;
66270;SDS011;53063;39.614;8.814;2023-08-01T03:07:08;6.50;;;2.13;;
66270;SDS011;53063;39.614;8.814;2023-08-01T03:09:34;10.32;;;2.30;;
66270;SDS011;53063;39.614;8.814;2023-08-01T03:12:00;7.65;;;2.20;;
66270;SDS011;53063;39.614;8.814;2023-08-01T03:14:26;7.22;;;2.28;;
66270;SDS011;53063;39.614;8.814;2023-08-01T03:16:52;9.07;;;2.40;;
66270;SDS011;53063;39.614;8.814;2023-08-01T03:19:17;8.27;;;2.88;;
66270;SDS011;53063;39.614;8.814;2023-08-01T03:21:43;7.50;;;2.40;;
66270;SDS011;53063;39.614;8.814;2023-08-01T03:24:09;13.23;;;2.97;;
66270;SDS011;53063;39.614;8.814;2023-08-01T03:26:36;7.32;;;2.85;;
66270;SDS011;53063;39.614;8.814;2023-08-01T03:29:02;7.20;;;2.60;;
66270;SDS011;53063;39.614;8.814;2023-08-01T03:31:28;10.43;;;2.75;;
66270;SDS011;53063;39.614;8.814;2023-08-01T03:33:54;8.57;;;2.97;;
66270;SDS011;53063;39.614;8.814;2023-08-01T03:36:20;8.95;;;2.53;;
66270;SDS011;53063;39.614;8.814;2023-08-01T03:38:46;6.38;;;2.60;;
66270;SDS011;53063;39.614;8.814;2023-08-01T03:41:13;8.23;;;2.50;;
66270;SDS011;53063;39.614;8.814;2023-08-01T03:43:39;11.40;;;2.78;;
66270;SDS011;53063;39.614;8.814;2023-08-01T03:46:05;7.15;;;2.45;;
66270;SDS011;53063;39.614;8.814;2023-08-01T03:48:32;9.93;;;2.88;;
66270;SDS011;53063;39.614;8.814;2023-08-01T03:50:58;12.10;;;2.85;;
66270;SDS011;53063;39.614;8.814;2023-08-01T03:53:25;12.02;;;3.22;;
66270;SDS011;53063;39.614;8.814;2023-08-01T03:55:51;12.57;;;2.90;;
66270;SDS011;53063;39.614;8.814;2023-08-01T03:58:17;10.43;;;2.50;;
66270;SDS011;53063;39.614;8.814;2023-08-01T04:00:43;11.15;;;2.90;;
66270;SDS011;53063;39.614;8.814;2023-08-01T04:03:09;7.90;;;2.50;;
66270;SDS011;53063;39.614;8.814;2023-08-01T04:05:35;14.60;;;3.03;;
66270;SDS011;53063;39.614;8.814;2023-08-01T04:08:01;12.95;;;3.22;;
66270;SDS011;53063;39.614;8.814;2023-08-01T04:10:27;10.57;;;2.63;;
66270;SDS011;53063;39.614;8.814;2023-08-01T04:12:53;9.77;;;2.80;;
66270;SDS011;53063;39.614;8.814;2023-08-01T04:15:19;12.93;;;2.80;;
66270;SDS011;53063;39.614;8.814;2023-08-01T04:17:45;10.90;;;2.75;;
66270;SDS011;53063;39.614;8.814;2023-08-01T04:20:11;8.75;;;3.28;;
66270;SDS011;53063;39.614;8.814;2023-08-01T04:22:37;5.05;;;2.75;;
66270;SDS011;53063;39.614;8.814;2023-08-01T04:25:04;12.18;;;2.72;;
66270;SDS011;53063;39.614;8.814;2023-08-01T04:27:31;9.55;;;2.88;;
66270;SDS011;53063;39.614;8.814;2023-08-01T04:29:57;13.57;;;3.40;;
66270;SDS011;53063;39.614;8.814;2023-08-01T04:32:23;8.65;;;3.05;;
66270;SDS011;53063;39.614;8.814;2023-08-01T04:34:49;9.27;;;2.72;;
66270;SDS011;53063;39.614;8.814;2023-08-01T04:37:15;9.73;;;2.58;;
66270;SDS011;53063;39.614;8.814;2023-08-01T04:39:41;9.35;;;2.97;;
66270;SDS011;53063;39.614;8.814;2023-08-01T04:42:07;7.60;;;2.47;;
66270;SDS011;53063;39.614;8.814;2023-08-01T04:44:33;8.73;;;2.55;;
66270;SDS011;53063;39.614;8.814;2023-08-01T04:46:58;9.85;;;2.90;;
66270;SDS011;53063;39.614;8.814;2023-08-01T04:49:24;9.30;;;3.05;;
66270;SDS011;53063;39.614;8.814;2023-08-01T04:51:50;5.55;;;2.53;;
66270;SDS011;53063;39.614;8.814;2023-08-01T04:54:16;9.43;;;2.70;;
66270;SDS011;53063;39.614;8.814;2023-08-01T04:56:42;10.90;;;2.85;;
66270;SDS011;53063;39.614;8.814;2023-08-01T04:59:08;13.15;;;3.15;;
66270;SDS011;53063;39.614;8.814;2023-08-01T05:01:34;11.10;;;3.00;;
66270;SDS011;53063;39.614;8.814;2023-08-01T05:04:00;7.50;;;2.70;;
66270;SDS011;53063;39.614;8.814;2023-08-01T05:06:26;9.35;;;2.47;;
66270;SDS011;53063;39.614;8.814;2023-08-01T05:08:53;8.68;;;2.53;;
66270;SDS011;53063;39.614;8.814;2023-08-01T05:11:19;11.68;;;2.92;;
66270;SDS011;53063;39.614;8.814;2023-08-01T05:13:46;10.50;;;2.92;;
66270;SDS011;53063;39.614;8.814;2023-08-01T05:16:12;12.35;;;2.88;;
66270;SDS011;53063;39.614;8.814;2023-08-01T05:18:38;7.88;;;2.85;;
66270;SDS011;53063;39.614;8.814;2023-08-01T05:21:04;9.30;;;2.80;;
66270;SDS011;53063;39.614;8.814;2023-08-01T05:23:29;10.23;;;2.85;;
66270;SDS011;53063;39.614;8.814;2023-08-01T05:25:55;12.18;;;2.97;;
66270;SDS011;53063;39.614;8.814;2023-08-01T05:28:21;7.20;;;2.83;;
66270;SDS011;53063;39.614;8.814;2023-08-01T05:30:47;12.13;;;3.13;;
66270;SDS011;53063;39.614;8.814;2023-08-01T05:33:13;11.25;;;3.13;;
66270;SDS011;53063;39.614;8.814;2023-08-01T05:35:39;9.57;;;3.35;;
66270;SDS011;53063;39.614;8.814;2023-08-01T05:38:05;10.05;;;2.97;;
66270;SDS011;53063;39.614;8.814;2023-08-01T05:40:31;8.60;;;3.35;;
66270;SDS011;53063;39.614;8.814;2023-08-01T05:42:57;7.38;;;2.70;;
66270;SDS011;53063;39.614;8.814;2023-08-01T05:45:23;8.27;;;2.95;;
66270;SDS011;53063;39.614;8.814;2023-08-01T05:47:49;11.73;;;3.20;;
66270;SDS011;53063;39.614;8.814;2023-08-01T05:50:15;10.13;;;3.22;;
66270;SDS011;53063;39.614;8.814;2023-08-01T05:52:41;6.07;;;2.58;;
66270;SDS011;53063;39.614;8.814;2023-08-01T05:55:07;7.95;;;2.70;;
66270;SDS011;53063;39.614;8.814;2023-08-01T05:57:33;9.57;;;3.20;;
66270;SDS011;53063;39.614;8.814;2023-08-01T06:00:00;12.40;;;2.88;;
66270;SDS011;53063;39.614;8.814;2023-08-01T06:02:26;8.15;;;2.70;;
66270;SDS011;53063;39.614;8.814;2023-08-01T06:04:52;12.27;;;3.65;;
66270;SDS011;53063;39.614;8.814;2023-08-01T06:07:18;13.68;;;2.85;;
66270;SDS011;53063;39.614;8.814;2023-08-01T06:09:49;12.05;;;2.80;;
66270;SDS011;53063;39.614;8.814;2023-08-01T06:12:18;12.98;;;2.95;;
66270;SDS011;53063;39.614;8.814;2023-08-01T06:14:44;8.98;;;2.58;;
66270;SDS011;53063;39.614;8.814;2023-08-01T06:17:11;6.60;;;2.80;;
66270;SDS011;53063;39.614;8.814;2023-08-01T06:19:37;8.75;;;3.03;;
66270;SDS011;53063;39.614;8.814;2023-08-01T06:22:03;10.82;;;2.45;;
66270;SDS011;53063;39.614;8.814;2023-08-01T06:24:29;6.43;;;2.58;;
66270;SDS011;53063;39.614;8.814;2023-08-01T06:26:55;10.77;;;2.50;;
66270;SDS011;53063;39.614;8.814;2023-08-01T06:29:20;8.93;;;2.58;;
66270;SDS011;53063;39.614;8.814;2023-08-01T06:31:46;7.28;;;2.75;;
66270;SDS011;53063;39.614;8.814;2023-08-01T06:34:12;9.57;;;3.13;;
66270;SDS011;53063;39.614;8.814;2023-08-01T06:36:38;6.15;;;2.70;;
66270;SDS011;53063;39.614;8.814;2023-08-01T06:39:04;14.30;;;3.17;;
66270;SDS011;53063;39.614;8.814;2023-08-01T06:41:31;9.90;;;2.80;;
66270;SDS011;53063;39.614;8.814;2023-08-01T06:43:57;9.35;;;2.80;;
66270;SDS011;53063;39.614;8.814;2023-08-01T06:46:23;9.45;;;2.60;;
66270;SDS011;53063;39.614;8.814;2023-08-01T06:48:49;7.25;;;2.63;;
66270;SDS011;53063;39.614;8.814;2023-08-01T06:51:15;8.13;;;2.58;;
66270;SDS011;53063;39.614;8.814;2023-08-01T06:53:40;7.38;;;2.95;;
66270;SDS011;53063;39.614;8.814;2023-08-01T06:56:06;9.23;;;3.38;;
66270;SDS011;53063;39.614;8.814;2023-08-01T06:58:32;10.27;;;2.97;;
66270;SDS011;53063;39.614;8.814;2023-08-01T07:00:58;9.93;;;2.90;;
66270;SDS011;53063;39.614;8.814;2023-08-01T07:03:24;7.20;;;3.17;;
66270;SDS011;53063;39.614;8.814;2023-08-01T07:05:50;10.40;;;3.65;;
66270;SDS011;53063;39.614;8.814;2023-08-01T07:08:16;7.90;;;3.75;;
66270;SDS011;53063;39.614;8.814;2023-08-01T07:10:42;6.78;;;2.80;;
66270;SDS011;53063;39.614;8.814;2023-08-01T07:13:08;11.68;;;3.28;;
66270;SDS011;53063;39.614;8.814;2023-08-01T07:15:33;6.00;;;2.92;;
66270;SDS011;53063;39.614;8.814;2023-08-01T07:17:59;7.65;;;3.10;;
66270;SDS011;53063;39.614;8.814;2023-08-01T07:20:25;7.68;;;3.60;;
66270;SDS011;53063;39.614;8.814;2023-08-01T07:22:51;10.18;;;3.55;;
66270;SDS011;53063;39.614;8.814;2023-08-01T07:25:17;10.10;;;3.35;;
66270;SDS011;53063;39.614;8.814;2023-08-01T07:27:45;9.05;;;3.40;;
66270;SDS011;53063;39.614;8.814;2023-08-01T07:30:11;5.65;;;2.97;;
66270;SDS011;53063;39.614;8.814;2023-08-01T07:32:38;8.10;;;2.97;;
66270;SDS011;53063;39.614;8.814;2023-08-01T07:35:04;10.38;;;2.97;;
66270;SDS011;53063;39.614;8.814;2023-08-01T07:37:32;8.93;;;2.90;;
66270;SDS011;53063;39.614;8.814;2023-08-01T07:39:59;7.30;;;3.22;;
66270;SDS011;53063;39.614;8.814;2023-08-01T07:42:24;6.97;;;3.05;;
66270;SDS011;53063;39.614;8.814;2023-08-01T07:44:50;11.05;;;3.20;;
66270;SDS011;53063;39.614;8.814;2023-08-01T07:47:16;8.65;;;2.90;;
66270;SDS011;53063;39.614;8.814;2023-08-01T07:49:42;8.07;;;2.75;;
66270;SDS011;53063;39.614;8.814;2023-08-01T07:52:08;5.80;;;2.97;;
66270;SDS011;53063;39.614;8.814;2023-08-01T07:54:35;5.65;;;2.63;;
66270;SDS011;53063;39.614;8.814;2023-08-01T07:57:01;6.38;;;3.05;;
66270;SDS011;53063;39.614;8.814;2023-08-01T07:59:27;7.03;;;3.45;;
66270;SDS011;53063;39.614;8.814;2023-08-01T08:01:52;6.07;;;2.92;;
66270;SDS011;53063;39.614;8.814;2023-08-01T08:04:18;6.50;;;2.58;;
66270;SDS011;53063;39.614;8.814;2023-08-01T08:06:44;10.70;;;3.10;;
66270;SDS011;53063;39.614;8.814;2023-08-01T08:09:10;9.55;;;3.20;;
66270;SDS011;53063;39.614;8.814;2023-08-01T08:11:36;5.45;;;2.72;;
66270;SDS011;53063;39.614;8.814;2023-08-01T08:14:02;6.63;;;3.15;;
66270;SDS011;53063;39.614;8.814;2023-08-01T08:16:28;7.75;;;2.63;;
66270;SDS011;53063;39.614;8.814;2023-08-01T08:18:55;5.32;;;2.70;;
66270;SDS011;53063;39.614;8.814;2023-08-01T08:21:20;7.50;;;2.90;;
66270;SDS011;53063;39.614;8.814;2023-08-01T08:23:46;7.20;;;2.83;;
66270;SDS011;53063;39.614;8.814;2023-08-01T08:26:12;6.78;;;2.92;;
66270;SDS011;53063;39.614;8.814;2023-08-01T08:28:38;6.57;;;2.95;;
66270;SDS011;53063;39.614;8.814;2023-08-01T08:31:07;7.28;;;2.78;;
66270;SDS011;53063;39.614;8.814;2023-08-01T08:33:33;6.47;;;3.28;;
66270;SDS011;53063;39.614;8.814;2023-08-01T08:35:59;9.05;;;3.03;;
66270;SDS011;53063;39.614;8.814;2023-08-01T08:38:25;10.88;;;3.75;;
66270;SDS011;53063;39.614;8.814;2023-08-01T08:43:56;6.80;;;2.70;;
66270;SDS011;53063;39.614;8.814;2023-08-01T08:46:27;7.90;;;2.90;;
66270;SDS011;53063;39.614;8.814;2023-08-01T08:48:55;6.00;;;2.50;;
66270;SDS011;53063;39.614;8.814;2023-08-01T08:51:22;6.60;;;2.45;;
66270;SDS011;53063;39.614;8.814;2023-08-01T08:53:53;5.72;;;2.55;;
66270;SDS011;53063;39.614;8.814;2023-08-01T08:56:20;6.18;;;2.53;;
66270;SDS011;53063;39.614;8.814;2023-08-01T08:58:47;6.72;;;3.10;;
66270;SDS011;53063;39.614;8.814;2023-08-01T09:01:14;6.00;;;2.50;;
66270;SDS011;53063;39.614;8.814;2023-08-01T09:03:42;6.70;;;2.80;;
66270;SDS011;53063;39.614;8.814;2023-08-01T09:06:12;7.80;;;2.63;;
66270;SDS011;53063;39.614;8.814;2023-08-01T09:08:45;6.60;;;2.90;;
66270;SDS011;53063;39.614;8.814;2023-08-01T09:11:20;7.95;;;3.72;;
66270;SDS011;53063;39.614;8.814;2023-08-01T09:13:47;7.05;;;2.97;;
66270;SDS011;53063;39.614;8.814;2023-08-01T09:16:14;9.15;;;2.53;;
66270;SDS011;53063;39.614;8.814;2023-08-01T09:18:48;6.28;;;2.72;;
66270;SDS011;53063;39.614;8.814;2023-08-01T09:21:17;7.15;;;2.63;;
66270;SDS011;53063;39.614;8.814;2023-08-01T09:23:44;8.63;;;3.13;;
66270;SDS011;53063;39.614;8.814;2023-08-01T09:26:13;7.25;;;3.58;;
66270;SDS011;53063;39.614;8.814;2023-08-01T09:28:40;8.90;;;2.97;;
66270;SDS011;53063;39.614;8.814;2023-08-01T09:31:06;7.22;;;3.05;;
66270;SDS011;53063;39.614;8.814;2023-08-01T09:33:39;9.07;;;3.00;;
66270;SDS011;53063;39.614;8.814;2023-08-01T09:36:09;7.28;;;2.65;;
66270;SDS011;53063;39.614;8.814;2023-08-01T09:38:35;5.25;;;2.60;;
66270;SDS011;53063;39.614;8.814;2023-08-01T09:41:02;10.20;;;2.83;;
66270;SDS011;53063;39.614;8.814;2023-08-01T09:43:36;6.15;;;2.78;;
66270;SDS011;53063;39.614;8.814;2023-08-01T09:46:02;6.30;;;2.85;;
66270;SDS011;53063;39.614;8.814;2023-08-01T09:48:31;6.03;;;3.05;;
66270;SDS011;53063;39.614;8.814;2023-08-01T09:53:34;9.25;;;3.30;;
66270;SDS011;53063;39.614;8.814;2023-08-01T09:56:01;5.20;;;2.50;;
66270;SDS011;53063;39.614;8.814;2023-08-01T09:58:31;6.20;;;3.85;;
66270;SDS011;53063;39.614;8.814;2023-08-01T10:00:59;7.88;;;3.05;;
66270;SDS011;53063;39.614;8.814;2023-08-01T10:03:29;8.82;;;3.15;;
66270;SDS011;53063;39.614;8.814;2023-08-01T10:05:55;10.00;;;3.47;;
66270;SDS011;53063;39.614;8.814;2023-08-01T10:08:23;6.10;;;3.15;;
66270;SDS011;53063;39.614;8.814;2023-08-01T10:10:50;9.27;;;4.00;;
66270;SDS011;53063;39.614;8.814;2023-08-01T10:13:16;15.40;;;4.72;;
66270;SDS011;53063;39.614;8.814;2023-08-01T10:15:45;8.85;;;3.55;;
66270;SDS011;53063;39.614;8.814;2023-08-01T10:18:11;7.75;;;3.22;;
66270;SDS011;53063;39.614;8.814;2023-08-01T10:20:38;6.63;;;3.20;;
66270;SDS011;53063;39.614;8.814;2023-08-01T10:23:05;8.63;;;3.47;;
66270;SDS011;53063;39.614;8.814;2023-08-01T10:25:32;10.35;;;3.63;;
66270;SDS011;53063;39.614;8.814;2023-08-01T10:27:59;10.02;;;3.58;;
66270;SDS011;53063;39.614;8.814;2023-08-01T10:30:26;10.02;;;3.90;;
66270;SDS011;53063;39.614;8.814;2023-08-01T10:32:54;9.43;;;3.03;;
66270;SDS011;53063;39.614;8.814;2023-08-01T10:35:37;11.27;;;3.78;;
66270;SDS011;53063;39.614;8.814;2023-08-01T10:40:41;11.13;;;3.55;;
66270;SDS011;53063;39.614;8.814;2023-08-01T10:43:21;5.70;;;3.13;;
66270;SDS011;53063;39.614;8.814;2023-08-01T10:45:48;7.32;;;3.55;;
66270;SDS011;53063;39.614;8.814;2023-08-01T10:48:25;11.10;;;3.75;;
66270;SDS011;53063;39.614;8.814;2023-08-01T10:50:57;9.20;;;4.00;;
66270;SDS011;53063;39.614;8.814;2023-08-01T10:53:23;7.72;;;3.50;;
66270;SDS011;53063;39.614;8.814;2023-08-01T10:55:49;9.65;;;4.03;;
66270;SDS011;53063;39.614;8.814;2023-08-01T10:58:15;7.82;;;3.88;;
66270;SDS011;53063;39.614;8.814;2023-08-01T11:00:44;7.15;;;4.07;;
66270;SDS011;53063;39.614;8.814;2023-08-01T11:03:10;13.00;;;3.80;;
66270;SDS011;53063;39.614;8.814;2023-08-01T11:05:36;8.98;;;3.75;;
66270;SDS011;53063;39.614;8.814;2023-08-01T11:08:03;7.07;;;3.58;;
66270;SDS011;53063;39.614;8.814;2023-08-01T11:10:30;8.73;;;4.13;;
66270;SDS011;53063;39.614;8.814;2023-08-01T11:12:57;10.40;;;3.40;;
66270;SDS011;53063;39.614;8.814;2023-08-01T11:15:24;8.98;;;3.83;;
66270;SDS011;53063;39.614;8.814;2023-08-01T11:17:51;8.77;;;3.22;;
66270;SDS011;53063;39.614;8.814;2023-08-01T11:20:20;9.07;;;4.82;;
66270;SDS011;53063;39.614;8.814;2023-08-01T11:22:51;8.20;;;3.88;;
66270;SDS011;53063;39.614;8.814;2023-08-01T11:25:17;8.05;;;4.10;;
66270;SDS011;53063;39.614;8.814;2023-08-01T11:27:43;6.97;;;4.40;;
66270;SDS011;53063;39.614;8.814;2023-08-01T11:30:10;8.48;;;3.85;;
66270;SDS011;53063;39.614;8.814;2023-08-01T11:32:36;11.30;;;4.13;;
66270;SDS011;53063;39.614;8.814;2023-08-01T11:35:03;8.77;;;4.82;;
66270;SDS011;53063;39.614;8.814;2023-08-01T11:37:30;10.55;;;3.80;;
66270;SDS011;53063;39.614;8.814;2023-08-01T11:39:57;7.65;;;4.30;;
66270;SDS011;53063;39.614;8.814;2023-08-01T11:42:24;10.52;;;4.40;;
66270;SDS011;53063;39.614;8.814;2023-08-01T11:44:49;9.18;;;4.20;;
66270;SDS011;53063;39.614;8.814;2023-08-01T11:47:16;8.68;;;3.92;;
66270;SDS011;53063;39.614;8.814;2023-08-01T11:49:46;7.93;;;3.83;;
66270;SDS011;53063;39.614;8.814;2023-08-01T11:52:23;9.27;;;3.58;;
66270;SDS011;53063;39.614;8.814;2023-08-01T11:54:50;8.90;;;3.67;;
66270;SDS011;53063;39.614;8.814;2023-08-01T11:57:16;11.50;;;3.30;;
66270;SDS011;53063;39.614;8.814;2023-08-01T11:59:48;9.00;;;3.53;;
66270;SDS011;53063;39.614;8.814;2023-08-01T12:02:22;9.38;;;4.05;;
66270;SDS011;53063;39.614;8.814;2023-08-01T12:04:52;8.25;;;4.10;;
66270;SDS011;53063;39.614;8.814;2023-08-01T12:07:19;8.98;;;4.13;;
66270;SDS011;53063;39.614;8.814;2023-08-01T12:09:58;12.77;;;3.95;;
66270;SDS011;53063;39.614;8.814;2023-08-01T12:12:28;7.75;;;3.28;;
66270;SDS011;53063;39.614;8.814;2023-08-01T12:14:54;7.70;;;3.90;;
66270;SDS011;53063;39.614;8.814;2023-08-01T12:17:21;9.80;;;3.95;;
66270;SDS011;53063;39.614;8.814;2023-08-01T12:19:48;6.68;;;3.53;;
66270;SDS011;53063;39.614;8.814;2023-08-01T12:22:14;10.90;;;4.13;;
66270;SDS011;53063;39.614;8.814;2023-08-01T12:24:40;9.20;;;3.45;;
66270;SDS011;53063;39.614;8.814;2023-08-01T12:27:07;10.63;;;3.85;;
66270;SDS011;53063;39.614;8.814;2023-08-01T12:29:33;7.13;;;3.75;;
66270;SDS011;53063;39.614;8.814;2023-08-01T12:31:59;10.20;;;4.00;;
66270;SDS011;53063;39.614;8.814;2023-08-01T12:34:27;6.32;;;3.75;;
66270;SDS011;53063;39.614;8.814;2023-08-01T12:36:53;8.77;;;3.53;;
66270;SDS011;53063;39.614;8.814;2023-08-01T12:39:19;6.47;;;3.83;;
66270;SDS011;53063;39.614;8.814;2023-08-01T12:41:45;13.23;;;4.97;;
66270;SDS011;53063;39.614;8.814;2023-08-01T12:44:10;8.98;;;3.67;;
66270;SDS011;53063;39.614;8.814;2023-08-01T12:46:37;7.65;;;3.80;;
66270;SDS011;53063;39.614;8.814;2023-08-01T12:49:04;8.05;;;3.92;;
66270;SDS011;53063;39.614;8.814;2023-08-01T12:51:30;8.38;;;3.58;;
66270;SDS011;53063;39.614;8.814;2023-08-01T12:53:56;9.60;;;3.85;;
66270;SDS011;53063;39.614;8.814;2023-08-01T12:56:22;10.25;;;3.83;;
66270;SDS011;53063;39.614;8.814;2023-08-01T12:58:48;7.90;;;3.97;;
66270;SDS011;53063;39.614;8.814;2023-08-01T13:01:14;9.63;;;3.90;;
66270;SDS011;53063;39.614;8.814;2023-08-01T13:03:39;8.05;;;4.03;;
66270;SDS011;53063;39.614;8.814;2023-08-01T13:06:05;9.73;;;4.18;;
66270;SDS011;53063;39.614;8.814;2023-08-01T13:08:31;7.60;;;3.83;;
66270;SDS011;53063;39.614;8.814;2023-08-01T13:10:57;11.07;;;4.03;;
66270;SDS011;53063;39.614;8.814;2023-08-01T13:13:25;9.45;;;4.50;;
66270;SDS011;53063;39.614;8.814;2023-08-01T13:15:51;6.55;;;3.78;;
66270;SDS011;53063;39.614;8.814;2023-08-01T13:18:17;9.38;;;3.80;;
66270;SDS011;53063;39.614;8.814;2023-08-01T13:20:43;13.52;;;4.05;;
66270;SDS011;53063;39.614;8.814;2023-08-01T13:23:09;9.98;;;4.15;;
66270;SDS011;53063;39.614;8.814;2023-08-01T13:25:35;8.90;;;3.92;;
66270;SDS011;53063;39.614;8.814;2023-08-01T13:28:01;11.32;;;4.15;;
66270;SDS011;53063;39.614;8.814;2023-08-01T13:30:27;8.00;;;4.05;;
66270;SDS011;53063;39.614;8.814;2023-08-01T13:32:52;7.82;;;3.95;;
66270;SDS011;53063;39.614;8.814;2023-08-01T13:35:18;8.68;;;3.78;;
66270;SDS011;53063;39.614;8.814;2023-08-01T13:37:44;12.70;;;4.05;;
66270;SDS011;53063;39.614;8.814;2023-08-01T13:40:10;8.75;;;3.67;;
66270;SDS011;53063;39.614;8.814;2023-08-01T13:42:39;8.60;;;3.58;;
66270;SDS011;53063;39.614;8.814;2023-08-01T13:45:06;13.55;;;4.57;;
66270;SDS011;53063;39.614;8.814;2023-08-01T13:47:32;10.18;;;4.20;;
66270;SDS011;53063;39.614;8.814;2023-08-01T13:49:58;9.88;;;4.35;;
66270;SDS011;53063;39.614;8.814;2023-08-01T13:52:24;8.13;;;3.50;;
66270;SDS011;53063;39.614;8.814;2023-08-01T13:54:49;10.73;;;4.03;;
66270;SDS011;53063;39.614;8.814;2023-08-01T13:57:15;8.13;;;3.83;;
66270;SDS011;53063;39.614;8.814;2023-08-01T13:59:41;13.05;;;3.97;;
66270;SDS011;53063;39.614;8.814;2023-08-01T14:02:07;7.45;;;3.63;;
66270;SDS011;53063;39.614;8.814;2023-08-01T14:04:33;8.88;;;3.28;;
66270;SDS011;53063;39.614;8.814;2023-08-01T14:06:59;8.18;;;3.80;;
66270;SDS011;53063;39.614;8.814;2023-08-01T14:09:25;8.50;;;3.40;;
66270;SDS011;53063;39.614;8.814;2023-08-01T14:11:50;10.13;;;4.10;;
66270;SDS011;53063;39.614;8.814;2023-08-01T14:14:16;7.95;;;3.60;;
66270;SDS011;53063;39.614;8.814;2023-08-01T14:16:42;8.30;;;3.30;;
66270;SDS011;53063;39.614;8.814;2023-08-01T14:19:09;10.43;;;3.53;;
66270;SDS011;53063;39.614;8.814;2023-08-01T14:21:35;9.85;;;3.28;;
66270;SDS011;53063;39.614;8.814;2023-08-01T14:24:01;8.13;;;3.55;;
66270;SDS011;53063;39.614;8.814;2023-08-01T14:26:27;8.82;;;3.92;;
66270;SDS011;53063;39.614;8.814;2023-08-01T14:28:53;8.50;;;3.92;;
66270;SDS011;53063;39.614;8.814;2023-08-01T14:31:19;10.15;;;3.20;;
66270;SDS011;53063;39.614;8.814;2023-08-01T14:33:45;8.48;;;3.70;;
66270;SDS011;53063;39.614;8.814;2023-08-01T14:36:11;8.90;;;4.03;;
66270;SDS011;53063;39.614;8.814;2023-08-01T14:38:38;9.93;;;3.40;;
66270;SDS011;53063;39.614;8.814;2023-08-01T14:41:04;9.45;;;3.58;;
66270;SDS011;53063;39.614;8.814;2023-08-01T14:43:30;8.75;;;3.55;;
66270;SDS011;53063;39.614;8.814;2023-08-01T14:45:56;10.60;;;3.80;;
66270;SDS011;53063;39.614;8.814;2023-08-01T14:48:22;9.23;;;3.75;;